Time;durP1;ratioP1;P1;durP2;ratioP2;P2;SDS_P1;SDS_P2;PMS_P1;PMS_P2;Temp;Humidity;BMP_temperature;BMP_pressure;BME280_temperature;BME280_humidity;BME280_pressure;Samples;Min_cycle;Max_cycle;Signal;HPM_P1;HPM_P2
2021/12/26 00:00:13;;;;;;;65.40;26.53;;;-3268.10;70.70;;;;;;5114350;28;20288;-85
2021/12/26 00:02:39;;;;;;;77.20;26.50;;;-3268.10;70.80;;;;;;5103918;28;20270;-85
2021/12/26 00:05:08;;;;;;;;;;;-3268.10;70.80;;;;;;5111510;28;20618;-85
2021/12/26 00:07:34;;;;;;;65.87;23.73;;;-3268.10;70.80;;;;;;5099866;28;19915;-85
2021/12/26 00:10:00;;;;;;;71.40;23.87;;;-3268.00;70.60;;;;;;5105401;28;20258;-85
2021/12/26 00:12:26;;;;;;;52.93;21.60;;;-3268.00;70.70;;;;;;5110994;28;20270;-85
2021/12/26 00:14:51;;;;;;;58.10;23.67;;;-3268.00;70.70;;;;;;5101506;28;20055;-84
2021/12/26 00:17:17;;;;;;;45.30;21.13;;;-3268.00;70.80;;;;;;5108002;28;20024;-85
2021/12/26 00:19:42;;;;;;;61.90;23.03;;;-3268.00;70.80;;;;;;5110390;28;20067;-85
2021/12/26 00:22:08;;;;;;;64.37;24.23;;;-3267.90;70.80;;;;;;5101977;28;20028;-86
2021/12/26 00:24:35;;;;;;;66.23;25.70;;;-3267.90;70.90;;;;;;5102211;28;20012;-85
2021/12/26 00:27:00;;;;;;;55.87;21.60;;;-3268.00;70.90;;;;;;5102595;28;20024;-85
2021/12/26 00:29:26;;;;;;;53.73;22.80;;;-3267.90;70.80;;;;;;5110864;28;20280;-86
2021/12/26 00:31:52;;;;;;;58.07;23.43;;;-3267.90;70.80;;;;;;5111218;28;20024;-85
2021/12/26 00:34:17;;;;;;;44.83;19.67;;;-3267.80;70.80;;;;;;5105589;28;20034;-85
2021/12/26 00:36:43;;;;;;;60.10;20.57;;;-3267.80;70.90;;;;;;5106132;28;20040;-84
2021/12/26 00:39:10;;;;;;;65.37;21.30;;;-3267.80;70.90;;;;;;5098473;28;20445;-84
2021/12/26 00:41:39;;;;;;;55.77;21.93;;;-3267.70;70.90;;;;;;5096499;28;20117;-86
2021/12/26 00:44:06;;;;;;;59.83;23.53;;;-3267.70;70.90;;;;;;5106491;28;20257;-85
2021/12/26 00:46:31;;;;;;;45.03;21.97;;;-3267.70;70.90;;;;;;5107696;28;20262;-87
2021/12/26 00:48:57;;;;;;;63.00;23.80;;;-3267.70;70.90;;;;;;5089660;28;20758;-86
2021/12/26 00:51:23;;;;;;;55.13;20.43;;;-3267.70;71.00;;;;;;5109028;28;20059;-85
2021/12/26 00:53:48;;;;;;;46.87;21.57;;;-3267.70;71.00;;;;;;5105282;28;20046;-85
2021/12/26 00:56:15;;;;;;;52.30;20.40;;;-3267.70;71.00;;;;;;5108024;28;20399;-85
2021/12/26 00:58:40;;;;;;;60.60;25.17;;;-3267.70;71.00;;;;;;5112352;28;20035;-85
2021/12/26 01:01:08;;;;;;;46.10;19.10;;;-3267.70;71.00;;;;;;5112744;28;20285;-85
2021/12/26 01:03:35;;;;;;;43.87;20.07;;;-3267.60;71.00;;;;;;5108066;28;20027;-85
2021/12/26 01:06:00;;;;;;;41.33;20.03;;;-3267.60;71.00;;;;;;5107039;28;20637;-86
2021/12/26 01:08:30;;;;;;;62.70;24.17;;;-3267.60;71.10;;;;;;5103690;28;20262;-85
2021/12/26 01:11:15;;;;;;;46.40;19.90;;;-3267.60;71.10;;;;;;5100609;28;20391;-86
2021/12/26 01:13:43;;;;;;;48.43;14.97;;;-3267.60;71.10;;;;;;5096118;28;20281;-85
2021/12/26 01:16:11;;;;;;;46.47;17.20;;;-3267.60;71.00;;;;;;5110005;28;20258;-85
2021/12/26 01:18:45;;;;;;;40.17;18.70;;;-3267.60;71.00;;;;;;5106055;28;20282;-85
2021/12/26 01:21:20;;;;;;;27.90;14.27;;;-3267.60;71.00;;;;;;5095713;28;20288;-84
2021/12/26 01:23:58;;;;;;;46.37;15.57;;;-3267.50;71.00;;;;;;5103748;28;20369;-85
2021/12/26 01:26:25;;;;;;;51.27;19.03;;;-3267.50;71.00;;;;;;5107443;28;20259;-84
2021/12/26 01:28:51;;;;;;;43.80;20.67;;;-3267.50;71.00;;;;;;5106695;28;20304;-85
2021/12/26 01:31:18;;;;;;;62.83;22.67;;;-3267.40;71.00;;;;;;5108511;28;20274;-85
2021/12/26 01:33:45;;;;;;;42.27;17.13;;;-3267.40;71.10;;;;;;5104066;28;20381;-84
2021/12/26 01:36:11;;;;;;;54.73;17.33;;;-3267.40;71.00;;;;;;5103042;28;20707;-84
2021/12/26 01:38:37;;;;;;;60.63;23.93;;;-3267.30;71.10;;;;;;5106310;28;20357;-85
2021/12/26 01:41:09;;;;;;;56.80;20.57;;;-3267.30;71.10;;;;;;5112562;28;20020;-86
2021/12/26 01:43:38;;;;;;;47.00;19.03;;;-3267.30;71.10;;;;;;5101408;28;20027;-86
2021/12/26 01:46:04;;;;;;;40.50;18.07;;;-3267.30;71.10;;;;;;5105139;28;20766;-84
2021/12/26 01:48:30;;;;;;;47.50;17.73;;;-3267.30;71.10;;;;;;5107784;28;20262;-86
2021/12/26 01:50:56;;;;;;;39.57;16.37;;;-3267.20;71.10;;;;;;5108909;28;20335;-85
2021/12/26 01:53:24;;;;;;;34.93;13.87;;;-3267.20;71.10;;;;;;5107677;28;20118;-85
2021/12/26 01:55:52;;;;;;;25.83;12.40;;;-3267.20;71.10;;;;;;5111620;28;20027;-85
2021/12/26 01:58:20;;;;;;;32.97;12.93;;;-3267.20;71.10;;;;;;5106214;28;20352;-85
2021/12/26 02:00:58;;;;;;;24.53;11.83;;;-3267.20;71.10;;;;;;5107015;28;20281;-84
2021/12/26 02:03:24;;;;;;;26.40;11.67;;;-3267.10;71.10;;;;;;5104104;28;20268;-84
2021/12/26 02:05:50;;;;;;;25.20;9.90;;;-3267.10;71.10;;;;;;5106468;28;20252;-84
2021/12/26 02:08:16;;;;;;;25.50;11.30;;;-3267.10;71.10;;;;;;5104170;28;20754;-84
2021/12/26 02:10:42;;;;;;;25.80;9.80;;;-3267.00;71.10;;;;;;5102471;28;20032;-84
2021/12/26 02:13:08;;;;;;;23.17;11.40;;;-3267.00;71.10;;;;;;5097128;28;20292;-84
2021/12/26 02:15:34;;;;;;;29.23;10.77;;;-3267.00;71.10;;;;;;5085854;28;20097;-85
2021/12/26 02:18:00;;;;;;;22.47;8.97;;;-3266.90;71.10;;;;;;5103975;28;20278;-85
2021/12/26 02:21:01;;;;;;;20.37;8.17;;;-3266.90;71.10;;;;;;5113015;28;20506;-86
2021/12/26 02:23:38;;;;;;;21.07;8.57;;;-3266.80;71.10;;;;;;5099516;28;20111;-86
2021/12/26 02:28:37;;;;;;;33.40;12.83;;;-3266.80;71.10;;;;;;5104059;28;20374;-85
2021/12/26 02:31:04;;;;;;;34.53;11.07;;;-3266.80;71.10;;;;;;5113115;28;20293;-84
2021/12/26 02:33:29;;;;;;;24.77;9.23;;;-3266.80;71.10;;;;;;5114517;28;20344;-85
2021/12/26 02:35:55;;;;;;;24.67;11.60;;;-3266.80;71.10;;;;;;5098958;28;20757;-85
2021/12/26 02:38:21;;;;;;;33.30;14.00;;;-3266.80;71.10;;;;;;5106554;28;20027;-84
2021/12/26 02:40:52;;;;;;;46.20;13.93;;;-3266.70;71.00;;;;;;5112941;28;20096;-85
2021/12/26 02:43:20;;;;;;;26.13;11.57;;;-3266.70;71.00;;;;;;5106127;28;20031;-85
2021/12/26 02:45:46;;;;;;;29.67;11.77;;;-3266.70;71.10;;;;;;5105506;28;20258;-85
2021/12/26 02:48:13;;;;;;;30.53;13.63;;;-3266.70;71.00;;;;;;5111738;28;20323;-86
2021/12/26 02:50:40;;;;;;;27.80;13.63;;;-3266.70;71.00;;;;;;5097695;28;20028;-86
2021/12/26 02:53:09;;;;;;;51.07;15.50;;;-3266.70;71.10;;;;;;5102433;28;20286;-85
2021/12/26 02:55:34;;;;;;;39.93;16.10;;;-3266.60;71.10;;;;;;5109626;28;20654;-86
2021/12/26 02:58:07;;;;;;;31.37;13.50;;;-3266.60;71.10;;;;;;5099478;28;20265;-83
2021/12/26 03:00:38;;;;;;;36.60;14.07;;;-3266.60;71.10;;;;;;5102940;28;20047;-85
2021/12/26 03:03:05;;;;;;;27.50;9.43;;;-3266.60;71.10;;;;;;5110292;28;20299;-85
2021/12/26 03:05:36;;;;;;;16.97;8.97;;;-3266.70;71.10;;;;;;5109126;28;20269;-86
2021/12/26 03:08:02;;;;;;;20.43;8.57;;;-3266.70;71.10;;;;;;5108906;28;20345;-85
2021/12/26 03:10:28;;;;;;;32.13;9.87;;;-3266.70;71.10;;;;;;5101215;28;20304;-84
2021/12/26 03:12:57;;;;;;;17.73;8.37;;;-3266.70;71.10;;;;;;5105057;28;20034;-86
2021/12/26 03:15:24;;;;;;;15.23;6.50;;;-3266.70;71.10;;;;;;5101110;28;20299;-84
2021/12/26 03:17:50;;;;;;;12.33;6.13;;;-3266.70;71.10;;;;;;5109116;28;20281;-84
2021/12/26 03:20:18;;;;;;;11.17;6.03;;;-3266.80;71.20;;;;;;5098112;28;20289;-85
2021/12/26 03:22:45;;;;;;;15.33;7.40;;;-3266.80;71.20;;;;;;5105358;28;20024;-85
2021/12/26 03:25:14;;;;;;;7.90;5.93;;;-3266.80;71.20;;;;;;5110305;28;20266;-85
2021/12/26 03:27:39;;;;;;;19.23;7.80;;;-3266.90;71.20;;;;;;5105405;28;20351;-86
2021/12/26 03:30:07;;;;;;;24.13;6.20;;;-3267.00;71.20;;;;;;5101933;28;20270;-84
2021/12/26 03:32:33;;;;;;;19.73;8.20;;;-3267.00;71.20;;;;;;5106290;28;20020;-84
2021/12/26 03:34:58;;;;;;;9.17;5.47;;;-3267.10;71.20;;;;;;5095818;28;20266;-86
2021/12/26 03:37:24;;;;;;;10.00;5.87;;;-3267.10;71.20;;;;;;5113789;28;20456;-86
2021/12/26 03:39:50;;;;;;;12.97;7.07;;;-3267.10;71.20;;;;;;5098881;28;20020;-87
2021/12/26 03:42:15;;;;;;;20.03;7.03;;;-3267.20;71.20;;;;;;5111499;28;20016;-86
2021/12/26 03:44:41;;;;;;;12.10;6.90;;;-3267.20;71.20;;;;;;5109005;28;20107;-84
2021/12/26 03:47:07;;;;;;;13.67;7.83;;;-3267.30;71.20;;;;;;5110418;28;20404;-85
2021/12/26 03:49:32;;;;;;;17.80;8.70;;;-3267.30;71.20;;;;;;5094823;28;20496;-85
2021/12/26 03:51:58;;;;;;;26.77;8.77;;;-3267.30;71.20;;;;;;5110652;28;20032;-86
2021/12/26 03:54:24;;;;;;;17.90;9.90;;;-3267.30;71.20;;;;;;5085648;28;20055;-86
2021/12/26 03:56:49;;;;;;;15.43;7.67;;;-3267.20;71.10;;;;;;5094303;28;20034;-86
2021/12/26 03:59:15;;;;;;;24.67;9.17;;;-3267.20;71.20;;;;;;5111108;28;20026;-86
2021/12/26 04:01:40;;;;;;;12.23;7.87;;;-3267.20;71.20;;;;;;5100306;28;20085;-85
2021/12/26 04:04:06;;;;;;;17.70;7.30;;;-3267.10;71.20;;;;;;5108651;28;20031;-85
2021/12/26 04:06:32;;;;;;;19.63;9.13;;;-3267.10;71.20;;;;;;5100228;28;20048;-86
2021/12/26 04:08:58;;;;;;;13.00;7.70;;;-3267.00;71.20;;;;;;5107267;28;20092;-84
2021/12/26 04:11:24;;;;;;;25.90;10.67;;;-3267.00;71.30;;;;;;5107669;28;20031;-84
2021/12/26 04:13:50;;;;;;;24.70;8.83;;;-3267.00;71.30;;;;;;5097184;28;20379;-85
2021/12/26 04:16:16;;;;;;;15.90;7.40;;;-3266.90;71.30;;;;;;5103570;28;20311;-84
2021/12/26 04:18:42;;;;;;;20.07;10.23;;;-3266.90;71.30;;;;;;5102924;28;20656;-85
2021/12/26 04:21:08;;;;;;;25.10;7.90;;;-3266.90;71.30;;;;;;5102478;28;20501;-85
2021/12/26 04:23:34;;;;;;;29.50;11.23;;;-3266.80;71.30;;;;;;5102810;28;20109;-84
2021/12/26 04:26:00;;;;;;;17.07;8.90;;;-3266.80;71.30;;;;;;5093145;28;20031;-85
2021/12/26 04:28:26;;;;;;;27.43;11.60;;;-3266.70;71.20;;;;;;5094588;28;20266;-86
2021/12/26 04:30:53;;;;;;;18.13;9.77;;;-3266.70;71.30;;;;;;5104875;28;20073;-83
2021/12/26 04:33:20;;;;;;;12.83;7.20;;;-3266.70;71.30;;;;;;5104678;28;20368;-85
2021/12/26 04:35:45;;;;;;;16.10;8.87;;;-3266.70;71.40;;;;;;5103693;28;20269;-84
2021/12/26 04:38:11;;;;;;;14.87;6.73;;;-3266.60;71.30;;;;;;5106411;28;20266;-85
2021/12/26 04:40:37;;;;;;;17.33;6.60;;;-3266.70;71.40;;;;;;5105577;28;20039;-86
2021/12/26 04:43:02;;;;;;;14.70;7.73;;;-3266.60;71.40;;;;;;5103066;28;20111;-85
2021/12/26 04:45:28;;;;;;;19.13;7.83;;;-3266.60;71.30;;;;;;5108837;28;20071;-86
2021/12/26 04:47:53;;;;;;;16.67;9.43;;;-3266.60;71.30;;;;;;5110249;28;20024;-85
2021/12/26 04:50:22;;;;;;;25.10;8.03;;;-3266.60;71.30;;;;;;5104260;28;20031;-84
2021/12/26 04:52:49;;;;;;;18.03;8.20;;;-3266.50;71.30;;;;;;5102203;28;20111;-85
2021/12/26 04:55:18;;;;;;;18.27;9.10;;;-3266.50;71.30;;;;;;5103158;28;20270;-85
2021/12/26 04:57:43;;;;;;;20.40;8.80;;;-3266.40;71.30;;;;;;5107630;28;20281;-85
2021/12/26 05:00:12;;;;;;;31.83;10.33;;;-3266.40;71.20;;;;;;5102503;28;20633;-86
2021/12/26 05:02:39;;;;;;;20.20;7.43;;;-3266.30;71.20;;;;;;5105153;28;20051;-86
2021/12/26 05:05:06;;;;;;;19.47;8.53;;;-3266.30;71.20;;;;;;5098022;28;20298;-86
2021/12/26 05:07:33;;;;;;;30.50;10.37;;;-3266.30;71.30;;;;;;5104830;28;20262;-86
2021/12/26 05:09:59;;;;;;;16.57;8.80;;;-3266.30;71.30;;;;;;5101915;28;20269;-85
2021/12/26 05:12:25;;;;;;;19.47;8.53;;;-3266.30;71.30;;;;;;5103379;28;20281;-86
2021/12/26 05:14:51;;;;;;;14.43;7.27;;;-3266.30;71.30;;;;;;5107016;28;20426;-86
2021/12/26 05:17:17;;;;;;;19.00;7.33;;;-3266.30;71.30;;;;;;5111407;28;20023;-86
2021/12/26 05:19:43;;;;;;;9.90;5.97;;;-3266.30;71.30;;;;;;5103488;28;20297;-85
2021/12/26 05:22:08;;;;;;;15.43;7.30;;;-3266.30;71.30;;;;;;5104792;28;20004;-85
2021/12/26 05:24:34;;;;;;;11.17;7.33;;;-3266.30;71.30;;;;;;5105797;28;20027;-85
2021/12/26 05:26:59;;;;;;;13.97;6.10;;;-3266.30;71.20;;;;;;5111938;28;20028;-84
2021/12/26 05:29:28;;;;;;;12.10;7.47;;;-3266.20;71.20;;;;;;5100281;28;20468;-85
2021/12/26 05:31:54;;;;;;;12.90;7.37;;;-3266.20;71.20;;;;;;5105718;28;20027;-85
2021/12/26 05:34:20;;;;;;;18.70;7.43;;;-3266.20;71.20;;;;;;5113228;28;20270;-85
2021/12/26 05:36:47;;;;;;;20.93;6.20;;;-3266.10;71.20;;;;;;5106202;28;20392;-84
2021/12/26 05:39:13;;;;;;;15.70;7.63;;;-3266.10;71.20;;;;;;5103198;28;20298;-84
2021/12/26 05:41:41;;;;;;;11.67;5.63;;;-3266.10;71.30;;;;;;5104053;28;20732;-84
2021/12/26 05:44:07;;;;;;;12.70;5.70;;;-3266.20;71.30;;;;;;5098101;28;20019;-85
2021/12/26 05:46:32;;;;;;;23.53;6.40;;;-3266.10;71.20;;;;;;5102367;28;20259;-83
2021/12/26 05:49:00;;;;;;;13.57;5.10;;;-3266.10;71.20;;;;;;5105782;28;20261;-85
2021/12/26 05:51:26;;;;;;;6.87;3.93;;;-3266.10;71.20;;;;;;5099682;28;20030;-85
2021/12/26 05:53:52;;;;;;;11.23;4.63;;;-3266.10;71.20;;;;;;5100240;28;20808;-86
2021/12/26 05:56:18;;;;;;;8.77;4.77;;;-3266.00;71.10;;;;;;5104831;28;20257;-86
2021/12/26 05:58:44;;;;;;;5.90;5.00;;;-3266.00;71.10;;;;;;5103519;28;20469;-85
2021/12/26 06:01:09;;;;;;;11.07;3.97;;;-3266.00;71.20;;;;;;5106414;28;20118;-85
2021/12/26 06:03:35;;;;;;;9.17;3.57;;;-3266.00;71.20;;;;;;5106725;28;20027;-85
2021/12/26 06:06:01;;;;;;;7.37;4.57;;;-3265.90;71.20;;;;;;5106355;28;20023;-84
2021/12/26 06:08:26;;;;;;;5.00;3.47;;;-3266.00;71.20;;;;;;5097912;28;20016;-84
2021/12/26 06:10:52;;;;;;;3.80;2.80;;;-3265.90;71.10;;;;;;5095266;28;20028;-85
2021/12/26 06:13:17;;;;;;;10.20;4.10;;;-3265.90;71.10;;;;;;5094585;28;20110;-85
2021/12/26 06:15:43;;;;;;;6.67;3.83;;;-3265.80;71.10;;;;;;5101427;28;20071;-84
2021/12/26 06:18:09;;;;;;;11.97;5.60;;;-3265.80;71.10;;;;;;5099452;28;20400;-85
2021/12/26 06:20:34;;;;;;;4.37;3.27;;;-3265.80;71.10;;;;;;5097748;28;20058;-85
2021/12/26 06:23:00;;;;;;;11.57;4.00;;;-3265.80;71.10;;;;;;5097543;28;20051;-85
2021/12/26 06:25:29;;;;;;;7.83;4.83;;;-3265.70;71.10;;;;;;5106186;28;20020;-85
2021/12/26 06:27:54;;;;;;;6.97;3.53;;;-3265.70;71.10;;;;;;5106363;28;20422;-85
2021/12/26 06:30:20;;;;;;;8.77;4.83;;;-3265.70;71.10;;;;;;5105658;28;20274;-86
2021/12/26 06:32:45;;;;;;;3.93;3.13;;;-3265.70;71.10;;;;;;5098714;28;20388;-85
2021/12/26 06:35:12;;;;;;;7.60;3.80;;;-3265.70;71.10;;;;;;5102898;28;20092;-86
2021/12/26 06:37:38;;;;;;;9.43;3.30;;;-3265.70;71.10;;;;;;5103213;28;20473;-86
2021/12/26 06:40:07;;;;;;;7.97;4.67;;;-3265.70;71.10;;;;;;5109047;28;20321;-83
2021/12/26 06:42:35;;;;;;;9.93;3.40;;;-3265.70;71.10;;;;;;5109322;28;20266;-82
2021/12/26 06:45:01;;;;;;;7.00;4.27;;;-3265.70;71.10;;;;;;5107463;28;20334;-89
2021/12/26 06:47:27;;;;;;;12.80;5.83;;;-3265.70;71.10;;;;;;5098353;28;20298;-84
2021/12/26 06:49:52;;;;;;;9.53;5.10;;;-3265.70;71.10;;;;;;5108064;28;20024;-83
2021/12/26 06:52:19;;;;;;;11.60;5.10;;;-3265.70;71.10;;;;;;5110641;28;20024;-84
2021/12/26 06:54:44;;;;;;;12.30;6.60;;;-3265.70;71.00;;;;;;5103479;28;20028;-83
2021/12/26 06:57:10;;;;;;;6.20;4.30;;;-3265.70;71.00;;;;;;5101651;28;20273;-84
2021/12/26 06:59:36;;;;;;;11.10;5.67;;;-3265.70;71.00;;;;;;5111300;28;20169;-82
2021/12/26 07:02:05;;;;;;;8.80;5.83;;;-3265.70;71.00;;;;;;5108327;28;20042;-85
2021/12/26 07:04:30;;;;;;;10.93;6.67;;;-3265.70;71.00;;;;;;5104623;28;20118;-85
2021/12/26 07:06:56;;;;;;;21.77;10.60;;;-3265.70;71.00;;;;;;5099534;28;20718;-84
2021/12/26 07:09:21;;;;;;;65.90;22.30;;;-3265.70;71.00;;;;;;5098066;28;20107;-85
2021/12/26 07:11:47;;;;;;;48.63;19.80;;;-3265.70;71.00;;;;;;5104921;28;20028;-84
2021/12/26 07:14:13;;;;;;;31.13;13.73;;;-3265.70;71.00;;;;;;5107865;28;20020;-85
2021/12/26 07:16:39;;;;;;;22.53;10.90;;;-3265.70;71.00;;;;;;5104256;28;20016;-86
2021/12/26 07:19:04;;;;;;;39.67;13.43;;;-3265.70;71.00;;;;;;5100340;28;20360;-86
2021/12/26 07:21:30;;;;;;;34.17;11.70;;;-3265.70;71.00;;;;;;5110344;28;20493;-87
2021/12/26 07:23:57;;;;;;;28.63;12.90;;;-3265.70;70.90;;;;;;5077985;28;20048;-84
2021/12/26 07:26:26;;;;;;;29.07;12.67;;;-3265.70;71.00;;;;;;5108103;28;20821;-85
2021/12/26 07:28:51;;;;;;;21.83;10.13;;;-3265.80;71.00;;;;;;5113583;28;20024;-86
2021/12/26 07:31:17;;;;;;;28.43;8.27;;;-3265.80;71.00;;;;;;5099791;28;20285;-84
2021/12/26 07:33:43;;;;;;;23.07;14.03;;;-3265.90;71.00;;;;;;5094718;28;20094;-85
2021/12/26 07:36:08;;;;;;;14.27;7.67;;;-3265.90;70.90;;;;;;5107105;28;20034;-84
2021/12/26 07:38:34;;;;;;;15.40;9.43;;;-3265.90;70.90;;;;;;5111482;28;20030;-85
2021/12/26 07:40:59;;;;;;;24.30;10.17;;;-3266.00;70.90;;;;;;5097343;28;20024;-85
2021/12/26 07:43:25;;;;;;;20.97;7.70;;;-3266.00;70.90;;;;;;5104533;28;20020;-83
2021/12/26 07:45:51;;;;;;;14.80;9.37;;;-3266.00;70.90;;;;;;5102612;28;20024;-84
2021/12/26 07:48:16;;;;;;;17.77;9.43;;;-3266.00;70.90;;;;;;5110263;28;20016;-85
2021/12/26 07:50:42;;;;;;;12.60;9.20;;;-3266.10;70.90;;;;;;5103220;28;20028;-86
2021/12/26 07:53:11;;;;;;;14.80;9.17;;;-3266.20;70.90;;;;;;5109312;28;20020;-83
2021/12/26 07:55:37;;;;;;;26.10;12.63;;;-3266.20;70.90;;;;;;5104275;28;20568;-85
2021/12/26 07:58:03;;;;;;;25.37;11.93;;;-3266.30;70.90;;;;;;5093765;28;20341;-85
2021/12/26 08:00:29;;;;;;;27.17;13.37;;;-3266.30;70.90;;;;;;5109610;28;20277;-83
2021/12/26 08:02:56;;;;;;;31.10;12.70;;;-3266.40;70.90;;;;;;5104286;28;20265;-84
2021/12/26 08:05:21;;;;;;;29.50;12.50;;;-3266.50;70.90;;;;;;5101813;28;20074;-86
2021/12/26 08:07:47;;;;;;;43.20;15.43;;;-3266.60;70.90;;;;;;5108410;28;20265;-85
2021/12/26 08:10:13;;;;;;;43.13;17.10;;;-3266.70;70.90;;;;;;5097154;28;20506;-87
2021/12/26 08:12:39;;;;;;;43.40;16.77;;;-3266.80;70.90;;;;;;5114787;28;20026;-86
2021/12/26 08:15:05;;;;;;;53.27;20.80;;;-3266.80;70.90;;;;;;5106739;28;20024;-84
2021/12/26 08:17:31;;;;;;;29.73;16.97;;;-3267.00;70.90;;;;;;5109225;28;20076;-83
2021/12/26 08:19:58;;;;;;;36.60;15.93;;;-3267.00;70.90;;;;;;5106242;28;20637;-86
2021/12/26 08:22:24;;;;;;;39.93;15.50;;;-3267.10;70.90;;;;;;5096458;28;20281;-86
2021/12/26 08:24:50;;;;;;;34.47;17.43;;;-3267.20;70.90;;;;;;5111815;28;20266;-86
2021/12/26 08:27:15;;;;;;;30.97;16.13;;;-3267.30;70.90;;;;;;5107668;28;20307;-85
2021/12/26 08:29:41;;;;;;;33.57;15.30;;;-3267.50;70.90;;;;;;5114044;28;20019;-85
2021/12/26 08:32:12;;;;;;;32.63;12.60;;;-3267.50;70.90;;;;;;5106504;28;20475;-87
2021/12/26 08:34:38;;;;;;;34.07;14.70;;;-3267.60;70.90;;;;;;5104794;28;20054;-85
2021/12/26 08:37:05;;;;;;;39.93;14.87;;;-3267.70;70.90;;;;;;5104077;28;20282;-84
2021/12/26 08:39:36;;;;;;;32.23;14.30;;;-3267.80;71.00;;;;;;5108373;28;20073;-83
2021/12/26 08:42:03;;;;;;;38.17;18.03;;;-3267.90;70.90;;;;;;5107707;28;20618;-84
2021/12/26 08:44:28;;;;;;;38.87;15.57;;;-3268.00;71.00;;;;;;5098362;28;20274;-85
2021/12/26 08:46:54;;;;;;;39.13;17.27;;;-3268.20;71.00;;;;;;5103644;28;20266;-85
2021/12/26 08:49:21;;;;;;;51.93;20.17;;;-3268.30;71.00;;;;;;5108532;28;20016;-85
2021/12/26 08:51:47;;;;;;;58.90;30.60;;;-3268.40;71.10;;;;;;5107639;28;20763;-85
2021/12/26 08:54:13;;;;;;;55.27;26.30;;;-3268.50;71.10;;;;;;5106436;28;20284;-83
2021/12/26 08:56:40;;;;;;;121.13;56.63;;;-3268.70;71.20;;;;;;5095075;28;20269;-84
2021/12/26 08:59:06;;;;;;;117.30;58.80;;;-3268.80;71.10;;;;;;5108913;28;20322;-87
2021/12/26 09:01:32;;;;;;;138.87;59.07;;;-3268.90;71.10;;;;;;5107008;28;20278;-86
2021/12/26 09:03:58;;;;;;;;;;;-3269.00;71.20;;;;;;5104082;28;20262;-87
2021/12/26 09:06:23;;;;;;;19.80;6.97;;;-3269.20;71.20;;;;;;5108465;28;19908;-86
2021/12/26 09:08:49;;;;;;;;;;;-3269.30;71.20;;;;;;5098284;28;20024;-87
2021/12/26 09:11:16;;;;;;;28.53;9.27;;;-3269.50;71.50;;;;;;5114198;28;19908;-87
2021/12/26 09:13:44;;;;;;;25.73;8.60;;;-3269.70;71.50;;;;;;5113152;28;20028;-87
2021/12/26 09:16:10;;;;;;;21.10;10.20;;;-3269.90;71.60;;;;;;5097038;28;20285;-87
2021/12/26 09:18:36;;;;;;;28.33;11.57;;;-3270.10;71.60;;;;;;5096859;28;20048;-86
2021/12/26 09:21:03;;;;;;;17.50;7.97;;;-3270.30;71.60;;;;;;5098257;28;20035;-88
2021/12/26 09:23:29;;;;;;;27.50;11.37;;;-3270.50;71.60;;;;;;5098468;28;20304;-87
2021/12/26 09:25:54;;;;;;;27.67;11.60;;;-3270.60;71.70;;;;;;5100422;28;20004;-86
2021/12/26 09:28:20;;;;;;;24.73;10.00;;;-3270.80;71.70;;;;;;5107900;28;20120;-88
2021/12/26 09:30:46;;;;;;;;;;;-3270.90;71.80;;;;;;5107928;28;20452;-87
2021/12/26 09:33:11;;;;;;;20.17;6.13;;;-3271.00;71.80;;;;;;5108712;28;19908;-86
2021/12/26 09:35:37;;;;;;;21.73;7.93;;;-3271.20;71.80;;;;;;5106746;28;20032;-87
2021/12/26 09:38:02;;;;;;;;;;;-3271.30;71.90;;;;;;5108713;28;20024;-87
2021/12/26 09:40:28;;;;;;;16.13;8.33;;;-3271.50;72.10;;;;;;5116352;28;20029;-86
2021/12/26 09:42:53;;;;;;;;;;;-3271.60;72.00;;;;;;5106800;28;20032;-86
2021/12/26 09:45:19;;;;;;;18.30;7.87;;;-3271.70;72.10;;;;;;5104622;28;20433;-86
2021/12/26 09:47:49;;;;;;;;;;;-3271.80;72.10;;;;;;5113704;28;20023;-86
2021/12/26 09:50:17;;;;;;;18.50;6.70;;;-3271.90;72.30;;;;;;5102605;28;19959;-86
2021/12/26 09:52:45;;;;;;;24.20;7.90;;;-3272.00;72.20;;;;;;5118215;28;20020;-87
2021/12/26 09:55:12;;;;;;;7.07;6.17;;;-3272.10;72.30;;;;;;5104372;28;20043;-87
2021/12/26 09:57:38;;;;;;;20.10;9.70;;;-3272.20;72.40;;;;;;5103079;28;20099;-85
2021/12/26 10:00:22;;;;;;;24.10;9.97;;;-3272.30;72.50;;;;;;5107970;28;20035;-87
2021/12/26 10:03:20;;;;;;;20.17;7.70;;;-3272.70;72.70;;;;;;5114508;28;20020;-88
2021/12/26 10:06:05;;;;;;;20.50;9.40;;;-3273.50;72.20;;;;;;5102147;28;20028;-87
2021/12/26 10:08:34;;;;;;;24.57;8.60;;;-3274.40;70.90;;;;;;5104222;28;20024;-87
2021/12/26 10:11:04;;;;;;;15.93;7.77;;;-3275.40;69.60;;;;;;5107199;28;20026;-85
2021/12/26 10:14:07;;;;;;;24.70;10.70;;;-3276.30;68.50;;;;;;5108911;28;20029;-86
2021/12/26 10:16:38;;;;;;;25.03;10.17;;;0.30;67.50;;;;;;5114019;28;20040;-87
2021/12/26 10:19:05;;;;;;;22.60;9.23;;;1.30;66.70;;;;;;5107049;28;20104;-87
2021/12/26 10:21:40;;;;;;;27.97;9.67;;;1.90;66.00;;;;;;5101169;28;20028;-86
2021/12/26 10:24:40;;;;;;;23.67;9.33;;;2.40;65.80;;;;;;5112681;28;20520;-86
2021/12/26 10:27:09;;;;;;;33.43;11.57;;;2.90;64.70;;;;;;5093089;28;20036;-84
2021/12/26 10:29:46;;;;;;;26.73;10.33;;;3.60;64.40;;;;;;5099705;28;20020;-84
2021/12/26 10:32:16;;;;;;;27.17;10.53;;;4.40;63.60;;;;;;5091895;28;20016;-86
2021/12/26 10:34:56;;;;;;;34.03;12.57;;;5.20;62.40;;;;;;5115677;28;20039;-86
2021/12/26 10:37:33;;;;;;;23.77;11.53;;;6.00;60.30;;;;;;5114345;28;20051;-86
2021/12/26 10:40:06;;;;;;;28.90;11.70;;;6.70;59.10;;;;;;5104975;28;20027;-85
2021/12/26 10:42:35;;;;;;;23.47;10.67;;;7.30;58.10;;;;;;5107364;28;20012;-85
2021/12/26 10:45:10;;;;;;;26.48;11.65;;;7.80;56.60;;;;;;5099108;28;20035;-85
2021/12/26 10:47:38;;;;;;;29.52;14.70;;;8.10;55.20;;;;;;5110077;28;20109;-88
2021/12/26 10:50:08;;;;;;;26.75;12.27;;;8.30;54.50;;;;;;5115427;28;20430;-85
2021/12/26 10:52:55;;;;;;;29.90;13.00;;;8.30;54.00;;;;;;5099998;28;20019;-85
2021/12/26 10:55:26;;;;;;;;;;;8.00;53.80;;;;;;5110887;28;20114;-85
2021/12/26 10:57:52;;;;;;;30.90;12.98;;;7.50;54.20;;;;;;5101429;28;20427;-85
2021/12/26 11:00:19;;;;;;;;;;;6.90;55.70;;;;;;5109605;28;20028;-86
2021/12/26 11:03:08;;;;;;;31.40;13.10;;;6.30;55.00;;;;;;5112286;28;20275;-86
2021/12/26 11:05:44;;;;;;;31.67;11.80;;;5.60;56.30;;;;;;5087028;28;20027;-85
2021/12/26 11:08:24;;;;;;;24.97;10.77;;;5.00;56.70;;;;;;5102643;28;20034;-86
2021/12/26 11:10:54;;;;;;;29.03;10.80;;;4.40;57.30;;;;;;5100888;28;20035;-85
2021/12/26 11:13:31;;;;;;;25.10;10.27;;;4.00;57.70;;;;;;5099905;28;20084;-85
2021/12/26 11:16:00;;;;;;;30.40;13.93;;;3.60;57.70;;;;;;5099709;28;20058;-89
2021/12/26 11:18:27;;;;;;;40.17;16.07;;;3.50;57.90;;;;;;5106299;28;20096;-90
2021/12/26 11:21:06;;;;;;;24.73;10.17;;;3.30;57.90;;;;;;5115233;28;20118;-87
2021/12/26 11:23:35;;;;;;;25.77;9.30;;;3.00;57.80;;;;;;5102681;28;20024;-86
2021/12/26 11:26:04;;;;;;;29.00;9.87;;;2.80;57.90;;;;;;5107424;28;20495;-89
2021/12/26 11:28:33;;;;;;;27.87;9.87;;;2.60;57.20;;;;;;5105247;28;20024;-88
2021/12/26 11:31:11;;;;;;;26.87;10.77;;;2.60;57.20;;;;;;5095389;28;20036;-88
2021/12/26 11:33:37;;;;;;;27.40;9.40;;;2.80;56.80;;;;;;5111843;28;20019;-87
2021/12/26 11:36:05;;;;;;;28.05;9.70;;;3.20;56.40;;;;;;5100420;28;20028;-88
2021/12/26 11:38:33;;;;;;;27.03;9.97;;;3.40;55.70;;;;;;5110715;28;20028;-88
2021/12/26 11:41:01;;;;;;;26.50;10.23;;;3.30;55.30;;;;;;5112956;28;20026;-88
2021/12/26 11:43:46;;;;;;;24.50;10.37;;;3.30;55.20;;;;;;5098007;28;20484;-89
2021/12/26 11:46:24;;;;;;;19.30;8.20;;;3.00;55.30;;;;;;5113342;28;20054;-88
2021/12/26 11:49:37;;;;;;;24.40;8.90;;;2.80;55.40;;;;;;5111789;28;20020;-89
2021/12/26 11:52:27;;;;;;;16.73;7.23;;;2.60;55.20;;;;;;5108385;28;20020;-89
2021/12/26 11:55:30;;;;;;;24.07;9.70;;;2.30;55.40;;;;;;5099699;28;20020;-88
2021/12/26 11:58:16;;;;;;;25.07;9.57;;;2.10;55.90;;;;;;5108440;28;20088;-92
2021/12/26 12:00:48;;;;;;;22.80;8.43;;;2.00;56.00;;;;;;5117147;28;20067;-90
2021/12/26 12:03:20;;;;;;;31.50;11.37;;;2.00;56.20;;;;;;5130468;28;20012;-91
2021/12/26 12:05:46;;;;;;;22.17;9.27;;;2.10;56.10;;;;;;5135950;27;20058;-95
2021/12/26 12:08:24;;;;;;;29.05;9.70;;;2.10;55.70;;;;;;5139047;27;20079;-94
2021/12/26 12:11:10;;;;;;;26.80;10.33;;;2.00;55.60;;;;;;5114269;28;20024;-89
2021/12/26 12:13:39;;;;;;;23.88;9.65;;;1.90;55.50;;;;;;5100237;28;20020;-84
2021/12/26 12:16:10;;;;;;;27.90;9.47;;;2.00;55.50;;;;;;5103330;28;20028;-83
2021/12/26 12:18:55;;;;;;;24.00;9.40;;;2.20;55.40;;;;;;5100226;28;20115;-84
2021/12/26 12:21:44;;;;;;;23.13;9.73;;;2.60;54.70;;;;;;5100303;28;20043;-84